Bookmark and Share
Track history (hours):
 

Torm Horizon

Last reported at 2014-Apr-12 05:32 UTC. Time now 2014-Apr-17 00:48 UTC.
Position N 35°53' E 014°55'.

Length 183 m; draft 7.7 m.

Type: Ship. MMSI: 220566000.

NotesDate/timePositionNaut miles runAvg speedWind from/ knotsBaromVisibWave heightAir tempDewpointWater temp
2014-Apr-12 05:32N 35°53' E 014°55'0 0.0
2014-Apr-12 04:32N 35°53' E 014°55'0 0.0
2014-Apr-12 03:32N 35°53' E 014°54'0 0.0
2014-Apr-12 02:14N 35°53' E 014°54'0 0.0
2014-Apr-11 19:32N 35°53' E 014°55'0 0.0
2014-Apr-11 18:32N 35°53' E 014°55'136 5.4
2014-Apr-10 17:33N 36°47' E 012°19'15612.5
2014-Apr-10 05:04N 38°29' E 009°49'1912.1
2014-Apr-10 03:31N 38°42' E 009°33'1212.2
2014-Apr-10 02:32N 38°51' E 009°22'1212.4
2014-Apr-10 01:32N 38°60' E 009°11'9 8.5
2014-Apr-10 00:31N 39°06' E 009°03'0 0.1
2014-Apr-09 23:31N 39°06' E 009°03'1 0.8
2014-Apr-09 22:32N 39°05' E 009°02'0 0.0
2014-Apr-09 21:32N 39°05' E 009°02'0 0.0
2014-Apr-09 20:32N 39°05' E 009°02'0 0.0
2014-Apr-09 19:32N 39°05' E 009°02'0 0.0
2014-Apr-09 18:32N 39°05' E 009°02'0 0.0
2014-Apr-09 17:32N 39°05' E 009°02'0 0.0
2014-Apr-09 16:32N 39°05' E 009°02'0 0.0
2014-Apr-09 15:32N 39°05' E 009°02'0 0.0
2014-Apr-09 14:31N 39°05' E 009°02'0 0.0
2014-Apr-09 13:31N 39°05' E 009°02'0 0.0
2014-Apr-09 12:31N 39°05' E 009°02'0 0.0
2014-Apr-09 11:31N 39°05' E 009°02'0 0.0
2014-Apr-09 10:31N 39°05' E 009°02'0 0.0
2014-Apr-09 09:31N 39°05' E 009°02'0 0.0
2014-Apr-09 08:31N 39°05' E 009°02'0 0.0
2014-Apr-09 07:31N 39°05' E 009°02'0 0.0
2014-Apr-09 06:31N 39°05' E 009°02'0 0.0
2014-Apr-09 05:31N 39°05' E 009°02'0 0.0
2014-Apr-09 04:31N 39°05' E 009°02'0 0.0
2014-Apr-09 03:31N 39°05' E 009°02'0 0.0
2014-Apr-09 02:31N 39°05' E 009°02'0 0.0
2014-Apr-09 01:31N 39°05' E 009°02'0 0.0
2014-Apr-09 00:31N 39°05' E 009°02'0 0.0
2014-Apr-08 23:31N 39°05' E 009°02'0 0.0
2014-Apr-08 22:31N 39°05' E 009°02'0 0.0
2014-Apr-08 21:31N 39°05' E 009°02'0 0.0
2014-Apr-08 20:33N 39°05' E 009°02'4 3.9
2014-Apr-08 19:33N 39°03' E 009°06'8 8.4
2014-Apr-08 18:33N 38°55' E 009°03'1211.9
2014-Apr-08 17:33N 38°44' E 008°56'1414.2
2014-Apr-08 16:33N 38°40' E 008°39'16214.5
2014-Apr-08 05:21N 37°58' E 005°19'3913.3
2014-Apr-08 02:25N 37°48' E 004°31'9714.1
2014-Apr-07 19:34N 37°23' E 002°33'37212.8
2014-Apr-06 14:33N 36°07' W 005°01'1212.4
2014-Apr-06 13:33N 36°05' W 005°16'9 8.4
2014-Apr-06 12:32N 36°09' W 005°25'0 0.1
2014-Apr-06 11:32N 36°09' W 005°25'0 0.0
2014-Apr-06 10:32N 36°09' W 005°25'0 0.0
2014-Apr-06 09:32N 36°09' W 005°25'0 0.1
2014-Apr-06 08:32N 36°09' W 005°25'0 0.0
2014-Apr-06 07:32N 36°09' W 005°25'0 0.0
2014-Apr-06 06:32N 36°09' W 005°25'0 0.0
2014-Apr-06 05:32N 36°09' W 005°25'0 0.0
2014-Apr-06 04:32N 36°09' W 005°25'0 0.0
2014-Apr-06 03:32N 36°09' W 005°25'0 0.0
2014-Apr-06 02:32N 36°09' W 005°25'0 0.0
2014-Apr-06 01:32N 36°09' W 005°25'0 0.0
2014-Apr-06 00:29N 36°09' W 005°25'0 0.1
2014-Apr-05 23:32N 36°09' W 005°25'0 0.0
2014-Apr-05 22:33N 36°09' W 005°25'2 1.3
2014-Apr-05 21:25N 36°11' W 005°24'0 0.0
2014-Apr-05 20:25N 36°11' W 005°24'0 0.0
2014-Apr-05 19:25N 36°11' W 005°24'0 0.0
2014-Apr-05 18:25N 36°11' W 005°24'0 0.0
2014-Apr-05 17:25N 36°11' W 005°24'0 0.0
2014-Apr-05 16:31N 36°11' W 005°24'0 0.0
2014-Apr-05 15:31N 36°11' W 005°24'0 0.0
2014-Apr-05 14:31N 36°11' W 005°24'0 0.0
2014-Apr-05 13:31N 36°11' W 005°24'0 0.0
2014-Apr-05 12:31N 36°11' W 005°24'0 0.0
2014-Apr-05 11:31N 36°11' W 005°24'0 0.0
2014-Apr-05 09:19N 36°11' W 005°24'0 0.0
2014-Apr-05 08:15N 36°11' W 005°24'0 0.0
2014-Apr-05 05:15N 36°11' W 005°24'0 0.0
2014-Apr-05 03:33N 36°11' W 005°24'0 0.0
2014-Apr-05 02:24N 36°11' W 005°24'0 0.0
2014-Apr-05 01:30N 36°11' W 005°24'0 0.0
2014-Apr-04 23:27N 36°11' W 005°24'0 0.0
2014-Apr-04 22:33N 36°11' W 005°24'0 0.0
2014-Apr-04 21:30N 36°11' W 005°24'0 0.0
2014-Apr-04 20:33N 36°11' W 005°24'0 0.0
2014-Apr-04 19:33N 36°11' W 005°24'0 0.0
2014-Apr-04 17:15N 36°11' W 005°24'0 0.0
2014-Apr-04 16:18N 36°11' W 005°24'0 0.0
2014-Apr-04 15:12N 36°11' W 005°24'0 0.0
2014-Apr-04 14:33N 36°11' W 005°24'0 0.0
2014-Apr-04 13:30N 36°11' W 005°24'0 0.0
2014-Apr-04 11:18N 36°11' W 005°24'0 0.0
2014-Apr-04 10:24N 36°11' W 005°24'0 0.0
2014-Apr-04 09:30N 36°11' W 005°24'0 0.0
2014-Apr-04 01:28N 36°11' W 005°24'4 4.5
2014-Apr-04 00:34N 36°07' W 005°23'6 6.4
2014-Apr-03 23:34N 36°03' W 005°16'8 7.8
2014-Apr-03 22:34N 36°05' W 005°07'35311.6
2014-Apr-02 16:14N 37°15' E 002°04'6113.0
2014-Apr-02 11:31N 37°23' E 003°20'  

Dump ship's entire track history

sailing weather and tide predictions

Torm Horizon — OYNM2 — position and weather